Search for airport 
image banner adimage banner adimage banner ad
image banner ad

EKVG - Vagar

Located in All Faeroe Islands, Faroe Islands

ICAO - EKVG, IATA - FAE

Data provided by Airmate  

General information

Coordinates: N62°3'49" W7°16'38"
Elevation is 280 feet MSL.
Magnetic variation is -6.8° East
View others Airports in (unassigned)

Operational data

Special qualification required
Current time UTC:
Current local time:
Weather
METAR: EKVG 250020Z AUTO 17003KT 0550 R12/P1500U R30/1300N FG OVC000/// 10/10 Q1013
TAF: TAF EKVG 241422Z 2415/2421 16008KT 9999 BKN004 TEMPO 2415/2421 0400 FG VV002
View NOTAMs / SUP AIP / TFR affecting this airport [VIEW]
Communications frequencies: [VIEW]

Runways:

RWY identifierQFULength (ft)Width (ft)SurfaceLDA (ft)
12118°590298ASPH5902
30298°590298ASPH5902

Airport contact information

Address: All Faeroe Islands Faroe Islands

Satellite view of EKVG